Time;durP1;ratioP1;P1;durP2;ratioP2;P2;SDS_P1;SDS_P2;PMS_P1;PMS_P2;Temp;Humidity;BMP_temperature;BMP_pressure;BME280_temperature;BME280_humidity;BME280_pressure;Samples;Min_cycle;Max_cycle;Signal;HPM_P1;HPM_P2
2021/07/24 00:00:48;;;;;;;;;13.50;12.25;;;;;27.65;36.07;100143.75;5102690;27;45404;-62
2021/07/24 00:03:14;;;;;;;;;16.00;15.00;;;;;27.63;36.57;100137.63;5102253;27;46868;-62
2021/07/24 00:05:39;;;;;;;;;15.00;14.25;;;;;27.62;36.80;100146.72;5097586;27;45301;-62
2021/07/24 00:08:04;;;;;;;;;17.25;16.00;;;;;27.60;36.37;100156.78;5097735;27;45616;-62
2021/07/24 00:10:30;;;;;;;;;14.75;14.75;;;;;27.55;36.12;100151.84;5102538;27;46112;-62
2021/07/24 00:12:55;;;;;;;;;15.25;13.75;;;;;27.56;36.71;100153.56;5099994;27;45257;-62
2021/07/24 00:15:20;;;;;;;;;16.25;14.50;;;;;27.54;36.88;100182.53;5098077;27;45311;-62
2021/07/24 00:17:46;;;;;;;;;13.75;13.50;;;;;27.48;36.50;100183.09;5102464;27;45493;-62
2021/07/24 00:20:11;;;;;;;;;20.75;16.00;;;;;27.47;36.25;100192.19;5083520;27;45349;-62
2021/07/24 00:22:37;;;;;;;;;15.00;11.75;;;;;27.42;37.04;100168.34;5102280;27;45245;-61
2021/07/24 00:25:02;;;;;;;;;16.00;14.00;;;;;27.33;36.97;100166.50;5102489;27;45378;-61
2021/07/24 00:27:28;;;;;;;;;18.50;14.50;;;;;27.32;36.62;100162.94;5102154;27;45513;-62
2021/07/24 00:29:54;;;;;;;;;13.00;11.75;;;;;27.27;37.28;100158.97;5100568;27;45324;-62
2021/07/24 00:32:20;;;;;;;;;17.25;16.75;;;;;27.19;36.77;100152.44;5102120;27;45286;-61
2021/07/24 00:34:45;;;;;;;;;18.00;16.00;;;;;27.14;37.09;100157.41;5102042;27;45179;-61
2021/07/24 00:37:10;;;;;;;;;15.75;13.00;;;;;27.08;36.70;100179.56;5088154;27;45398;-62
2021/07/24 00:39:36;;;;;;;;;16.00;13.25;;;;;27.03;37.16;100198.88;5099999;27;46083;-61
2021/07/24 00:42:22;;;;;;;;;13.00;13.00;;;;;27.01;37.05;100170.38;5080203;27;45916;-61
2021/07/24 00:44:49;;;;;;;;;15.00;14.00;;;;;26.95;36.89;100162.84;5083862;27;45425;-61
2021/07/24 00:47:20;;;;;;;;;16.75;13.75;;;;;26.89;37.11;100173.19;5101692;27;45465;-61
2021/07/24 00:49:47;;;;;;;;;16.75;15.25;;;;;26.88;37.53;100168.81;5101418;27;45174;-61
2021/07/24 00:52:15;;;;;;;;;18.25;17.00;;;;;26.87;37.13;100174.34;5101325;27;45437;-61
2021/07/24 00:54:42;;;;;;;;;20.50;16.00;;;;;26.85;37.71;100171.75;5090270;27;45383;-61
2021/07/24 00:57:08;;;;;;;;;16.75;15.50;;;;;26.85;37.21;100170.94;5099540;27;45425;-61
2021/07/24 00:59:35;;;;;;;;;14.75;13.75;;;;;26.82;37.45;100169.38;5101764;27;46012;-61
2021/07/24 01:02:00;;;;;;;;;20.75;16.25;;;;;26.82;37.26;100174.75;5087498;27;45198;-62
2021/07/24 01:04:26;;;;;;;;;18.50;15.25;;;;;26.80;37.45;100176.72;5101479;27;45239;-62
2021/07/24 01:06:51;;;;;;;;;18.50;17.25;;;;;26.79;37.31;100168.78;5095271;27;45628;-61
2021/07/24 01:09:17;;;;;;;;;17.00;16.00;;;;;26.79;37.68;100149.94;5100088;27;45306;-61
2021/07/24 01:11:43;;;;;;;;;17.00;15.75;;;;;26.77;37.52;100144.69;5100037;27;45459;-62
2021/07/24 01:14:10;;;;;;;;;16.25;15.25;;;;;26.77;37.85;100158.16;5095174;27;45335;-61
2021/07/24 01:16:36;;;;;;;;;19.00;18.50;;;;;26.74;37.97;100153.91;5101440;27;45253;-61
2021/07/24 01:19:01;;;;;;;;;19.25;16.00;;;;;26.67;37.60;100147.34;5095636;27;45379;-61
2021/07/24 01:21:30;;;;;;;;;19.50;17.25;;;;;26.69;38.37;100158.84;5092576;27;45393;-61
2021/07/24 01:23:56;;;;;;;;;19.50;17.00;;;;;26.65;37.75;100167.34;5087906;27;45434;-61
2021/07/24 01:26:27;;;;;;;;;17.00;15.25;;;;;26.65;38.24;100172.72;5098990;27;45658;-61
2021/07/24 01:28:52;;;;;;;;;17.75;16.25;;;;;26.58;38.41;100173.28;5101474;27;46235;-62
2021/07/24 01:31:18;;;;;;;;;16.25;16.25;;;;;26.57;38.61;100163.50;5101366;27;45196;-62
2021/07/24 01:33:43;;;;;;;;;17.00;15.00;;;;;26.53;38.21;100163.94;5101766;27;45319;-62
2021/07/24 01:36:09;;;;;;;;;21.00;17.75;;;;;26.52;38.41;100181.06;5079386;28;45309;-62
2021/07/24 01:38:38;;;;;;;;;17.75;16.25;;;;;26.46;39.25;100184.31;5092049;27;45958;-62
2021/07/24 01:41:08;;;;;;;;;16.50;16.25;;;;;26.40;39.58;100167.72;5101347;27;45430;-62
2021/07/24 01:43:33;;;;;;;;;18.75;16.75;;;;;26.36;39.04;100177.06;5101276;27;45442;-62
2021/07/24 01:45:59;;;;;;;;;16.75;15.25;;;;;26.32;39.70;100172.09;5082725;27;45566;-62
2021/07/24 01:48:35;;;;;;;;;16.25;15.75;;;;;26.23;39.82;100181.84;5101207;27;46093;-63
2021/07/24 01:53:52;;;;;;;;;18.00;16.25;;;;;26.06;40.73;100169.88;5101204;27;45457;-63
2021/07/24 01:56:21;;;;;;;;;16.75;14.50;;;;;26.01;40.59;100174.78;5101135;27;45450;-62
2021/07/24 01:58:47;;;;;;;;;18.25;14.50;;;;;25.93;40.59;100187.06;5100818;27;45223;-62
2021/07/24 02:01:12;;;;;;;;;16.50;14.00;;;;;25.87;41.22;100170.63;5101047;27;45303;-62
2021/07/24 02:03:43;;;;;;;;;13.00;13.00;;;;;25.82;41.88;100191.72;5101152;27;45389;-61
2021/07/24 02:06:11;;;;;;;;;14.00;11.00;;;;;25.74;42.24;100187.00;5100682;27;45405;-62
2021/07/24 02:08:37;;;;;;;;;14.00;12.75;;;;;25.68;41.75;100199.13;5100655;27;46946;-62
2021/07/24 02:11:04;;;;;;;;;13.50;10.75;;;;;25.63;42.36;100199.56;5082795;27;45205;-63
2021/07/24 02:13:29;;;;;;;;;10.75;9.25;;;;;25.58;42.50;100204.44;5100750;27;45259;-63
2021/07/24 02:15:56;;;;;;;;;17.25;13.00;;;;;25.50;42.21;100209.66;5098453;27;45334;-62
2021/07/24 02:18:22;;;;;;;;;11.00;9.75;;;;;25.45;42.41;100226.16;5090129;27;46584;-62
2021/07/24 02:20:49;;;;;;;;;11.00;10.75;;;;;25.40;42.95;100222.19;5079915;27;45195;-63
2021/07/24 02:23:16;;;;;;;;;7.25;7.00;;;;;25.30;42.71;100227.44;5080318;28;45232;-62
2021/07/24 02:25:43;;;;;;;;;8.00;7.00;;;;;25.29;42.81;100233.81;5080481;28;45820;-62
2021/07/24 02:28:08;;;;;;;;;8.50;8.50;;;;;25.24;42.65;100236.03;5079761;27;45410;-63
2021/07/24 02:30:34;;;;;;;;;9.50;7.00;;;;;25.21;42.93;100233.63;5080381;27;45297;-63
2021/07/24 02:32:59;;;;;;;;;8.50;8.00;;;;;25.18;43.10;100240.06;5080305;28;45382;-63
2021/07/24 02:35:24;;;;;;;;;7.75;7.00;;;;;25.16;42.84;100236.69;5069414;28;45340;-62
2021/07/24 02:37:50;;;;;;;;;6.75;6.75;;;;;25.14;42.63;100239.50;5097496;27;45287;-63
2021/07/24 02:40:16;;;;;;;;;7.25;6.00;;;;;25.15;42.73;100234.97;5078815;28;45297;-62
2021/07/24 02:42:43;;;;;;;;;8.00;5.75;;;;;25.02;42.92;100208.28;5097653;27;45244;-63
2021/07/24 02:45:09;;;;;;;;;6.00;6.00;;;;;25.10;42.98;100221.91;5100496;27;45469;-63
2021/07/24 02:47:34;;;;;;;;;7.00;6.25;;;;;25.09;43.00;100213.97;5100127;27;46013;-63
2021/07/24 02:50:00;;;;;;;;;7.25;6.25;;;;;25.07;42.72;100213.25;5100198;27;45157;-63
2021/07/24 02:52:25;;;;;;;;;6.50;5.50;;;;;25.04;42.38;100216.19;5100340;27;45808;-63
2021/07/24 02:54:51;;;;;;;;;6.50;6.00;;;;;25.01;42.73;100225.38;5100419;27;45588;-63
2021/07/24 02:57:16;;;;;;;;;6.25;5.50;;;;;24.96;42.72;100223.06;5100203;27;45974;-63
2021/07/24 02:59:41;;;;;;;;;4.50;4.25;;;;;24.93;42.46;100231.38;5100333;27;45366;-62
2021/07/24 03:02:07;;;;;;;;;7.25;5.50;;;;;24.88;42.74;100236.28;5102779;27;45360;-64
2021/07/24 03:04:32;;;;;;;;;5.25;4.25;;;;;24.86;42.87;100250.84;5103981;27;45612;-63
2021/07/24 03:06:58;;;;;;;;;6.50;5.50;;;;;24.84;42.92;100256.31;5103555;27;45612;-63
2021/07/24 03:09:23;;;;;;;;;4.25;4.25;;;;;24.78;42.70;100255.00;5103571;27;45578;-64
2021/07/24 03:11:49;;;;;;;;;8.50;6.00;;;;;24.76;42.63;100262.31;5085394;27;45311;-64
2021/07/24 03:14:14;;;;;;;;;4.00;4.00;;;;;24.75;42.73;100259.75;5085293;27;45331;-64
2021/07/24 03:16:39;;;;;;;;;6.75;6.25;;;;;24.76;42.74;100246.19;5082004;28;45955;-64
2021/07/24 03:19:04;;;;;;;;;6.00;5.00;;;;;24.73;42.58;100254.53;5102114;27;45248;-64
2021/07/24 03:21:30;;;;;;;;;5.75;5.00;;;;;24.69;42.70;100246.84;5103396;27;45245;-64
2021/07/24 03:23:55;;;;;;;;;4.75;4.75;;;;;24.66;42.83;100259.53;5103587;27;45469;-64
2021/07/24 03:26:21;;;;;;;;;3.75;3.75;;;;;24.59;43.04;100270.84;5103608;27;45298;-63
2021/07/24 03:28:47;;;;;;;;;6.50;5.50;;;;;24.58;42.91;100285.25;5103346;27;45307;-64
2021/07/24 03:31:12;;;;;;;;;3.50;3.50;;;;;24.53;42.94;100292.84;5103705;27;45363;-65
2021/07/24 03:33:38;;;;;;;;;7.75;6.75;;;;;24.45;43.12;100296.13;5103337;27;45330;-65
2021/07/24 03:36:04;;;;;;;;;6.75;6.75;;;;;24.37;42.74;100299.44;5103292;27;45330;-64
2021/07/24 03:38:30;;;;;;;;;7.50;7.50;;;;;24.36;43.15;100307.63;5103253;27;45218;-65
2021/07/24 03:40:55;;;;;;;;;8.75;5.75;;;;;24.30;42.99;100304.44;5103494;27;45256;-65
2021/07/24 03:43:21;;;;;;;;;6.50;6.00;;;;;24.25;43.31;100319.19;5081323;28;45616;-64
2021/07/24 03:45:46;;;;;;;;;4.00;4.00;;;;;24.16;43.04;100334.19;5093687;27;46843;-64
2021/07/24 03:48:12;;;;;;;;;6.00;5.00;;;;;24.13;43.24;100346.03;5103080;27;45307;-65
2021/07/24 03:50:37;;;;;;;;;6.25;6.25;;;;;24.08;43.47;100339.31;5084728;27;45452;-65
2021/07/24 03:53:02;;;;;;;;;8.25;7.50;;;;;24.07;43.55;100322.34;5103105;27;45207;-65
2021/07/24 03:55:28;;;;;;;;;6.50;5.00;;;;;24.05;43.46;100340.41;5103166;27;46247;-64
2021/07/24 03:57:56;;;;;;;;;5.00;4.75;;;;;23.97;43.67;100362.44;5102833;27;45397;-64
2021/07/24 04:00:23;;;;;;;;;7.25;5.25;;;;;23.96;43.53;100350.03;5081422;28;45293;-64
2021/07/24 04:02:48;;;;;;;;;5.75;4.75;;;;;23.94;43.50;100357.31;5100237;27;45228;-64
2021/07/24 04:05:14;;;;;;;;;6.75;6.25;;;;;23.87;43.41;100353.38;5102736;27;45932;-65
2021/07/24 04:07:41;;;;;;;;;8.25;7.00;;;;;23.86;43.75;100368.63;5084292;27;45303;-64
2021/07/24 04:10:08;;;;;;;;;7.25;6.00;;;;;23.82;44.15;100385.06;5102961;27;45303;-64
2021/07/24 04:12:35;;;;;;;;;8.75;8.50;;;;;23.80;44.05;100377.13;5083367;27;45564;-64
2021/07/24 04:15:02;;;;;;;;;8.75;7.25;;;;;23.77;43.83;100363.09;5102644;27;46359;-66
2021/07/24 04:17:27;;;;;;;;;7.00;6.25;;;;;23.69;44.14;100372.56;5102492;27;45267;-64
2021/07/24 04:19:55;;;;;;;;;7.25;6.25;;;;;23.65;44.13;100368.41;5102507;27;45301;-64
2021/07/24 04:22:20;;;;;;;;;5.75;5.25;;;;;23.63;43.92;100367.66;5102438;27;45178;-64
2021/07/24 04:24:46;;;;;;;;;5.50;5.00;;;;;23.60;44.17;100357.19;5102614;27;46268;-64
2021/07/24 04:27:11;;;;;;;;;9.75;7.50;;;;;23.54;43.96;100365.69;5102589;27;45241;-64
2021/07/24 04:29:37;;;;;;;;;6.50;6.50;;;;;23.53;44.02;100361.28;5084268;27;45255;-64
2021/07/24 04:32:03;;;;;;;;;6.00;6.00;;;;;23.49;44.04;100354.44;5102489;27;45236;-64
2021/07/24 04:34:29;;;;;;;;;8.25;8.25;;;;;23.48;43.85;100353.59;5102353;27;47282;-64
2021/07/24 04:36:55;;;;;;;;;5.25;4.50;;;;;23.47;43.91;100359.06;5101987;27;45462;-64
2021/07/24 04:39:20;;;;;;;;;7.75;5.00;;;;;23.46;44.09;100362.69;5102653;27;45306;-64
2021/07/24 04:41:45;;;;;;;;;5.25;5.25;;;;;23.43;44.23;100369.16;5102298;27;45626;-64
2021/07/24 04:44:10;;;;;;;;;8.25;6.50;;;;;23.40;44.07;100369.41;5102381;27;45311;-65
2021/07/24 04:46:36;;;;;;;;;7.50;7.50;;;;;23.36;44.34;100370.59;5102147;27;45324;-64
2021/07/24 04:49:01;;;;;;;;;8.75;7.00;;;;;23.36;44.52;100381.31;5102452;27;45345;-64
2021/07/24 04:51:27;;;;;;;;;7.00;6.00;;;;;23.28;44.69;100387.25;5080269;28;45542;-63
2021/07/24 04:53:55;;;;;;;;;8.00;6.00;;;;;23.24;44.90;100376.84;5092163;27;45360;-64
2021/07/24 04:56:21;;;;;;;;;9.00;6.00;;;;;23.23;45.12;100394.75;5101984;27;45149;-64
2021/07/24 04:58:46;;;;;;;;;7.25;7.25;;;;;23.16;45.02;100399.72;5102099;27;45240;-64
2021/07/24 05:01:12;;;;;;;;;9.75;6.00;;;;;23.14;45.10;100417.69;5101927;27;45487;-64
2021/07/24 05:03:38;;;;;;;;;9.50;8.00;;;;;23.07;45.28;100410.19;5101871;27;46815;-64
2021/07/24 05:06:04;;;;;;;;;7.75;6.25;;;;;23.00;45.43;100416.00;5089084;27;45334;-64
2021/07/24 05:08:35;;;;;;;;;8.00;8.00;;;;;22.98;45.35;100412.59;5102077;27;45399;-64
2021/07/24 05:11:01;;;;;;;;;6.00;6.00;;;;;22.99;45.49;100418.78;5101757;27;45333;-64
2021/07/24 05:13:26;;;;;;;;;7.25;7.25;;;;;22.93;45.26;100413.88;5100247;27;47043;-64
2021/07/24 05:15:52;;;;;;;;;8.00;7.25;;;;;22.88;45.80;100417.75;5101707;27;45441;-63
2021/07/24 05:18:18;;;;;;;;;6.00;6.00;;;;;22.80;45.78;100420.09;5101920;27;45390;-64
2021/07/24 05:20:43;;;;;;;;;7.50;7.50;;;;;22.75;45.70;100418.72;5101194;27;45446;-64
2021/07/24 05:23:10;;;;;;;;;7.25;7.00;;;;;22.69;46.19;100411.97;5101701;27;46365;-64
2021/07/24 05:25:36;;;;;;;;;9.50;8.75;;;;;22.68;45.59;100419.16;5100443;27;45430;-64
2021/07/24 05:28:02;;;;;;;;;6.25;5.75;;;;;22.61;46.21;100415.19;5101789;27;45339;-64
2021/07/24 05:30:27;;;;;;;;;8.75;8.75;;;;;22.64;45.88;100428.38;5101401;27;45522;-64
2021/07/24 05:32:52;;;;;;;;;8.00;8.00;;;;;22.60;46.35;100428.69;5101576;27;46556;-65
2021/07/24 05:35:18;;;;;;;;;8.00;7.25;;;;;22.59;45.89;100433.19;5101655;27;45329;-64
2021/07/24 05:37:43;;;;;;;;;8.50;8.50;;;;;22.56;46.46;100426.22;5101519;27;45236;-64
2021/07/24 05:40:09;;;;;;;;;9.25;7.50;;;;;22.57;46.11;100421.72;5101284;27;45243;-64
2021/07/24 05:42:34;;;;;;;;;7.00;5.00;;;;;22.53;46.19;100422.91;5101208;27;46018;-64
2021/07/24 05:45:00;;;;;;;;;7.00;6.00;;;;;22.52;46.64;100424.72;5101155;27;45221;-64
2021/07/24 05:47:25;;;;;;;;;10.50;8.75;;;;;22.48;46.31;100422.38;5082945;27;45464;-64
2021/07/24 05:49:52;;;;;;;;;8.25;6.75;;;;;22.47;46.20;100418.81;5100956;27;45221;-63
2021/07/24 05:52:17;;;;;;;;;8.25;6.75;;;;;22.46;46.70;100421.63;5100998;27;46365;-63
2021/07/24 05:54:42;;;;;;;;;7.75;6.00;;;;;22.43;46.15;100424.47;5100883;27;45413;-63
2021/07/24 05:57:08;;;;;;;;;11.25;9.75;;;;;22.40;46.72;100425.56;5099956;27;45298;-64
2021/07/24 05:59:34;;;;;;;;;9.25;8.25;;;;;22.39;47.06;100429.22;5082555;27;45221;-63
2021/07/24 06:02:01;;;;;;;;;6.75;5.00;;;;;22.33;46.74;100424.25;5100882;27;46939;-64
2021/07/24 06:04:26;;;;;;;;;7.75;6.25;;;;;22.32;46.65;100422.53;5082431;27;45350;-64
2021/07/24 06:06:51;;;;;;;;;8.75;8.00;;;;;22.27;47.05;100417.50;5100535;27;45462;-63
2021/07/24 06:09:17;;;;;;;;;8.25;6.75;;;;;22.28;47.06;100416.53;5100694;27;45305;-64
2021/07/24 06:11:42;;;;;;;;;8.75;6.00;;;;;22.19;46.85;100401.13;5100645;27;46079;-63
2021/07/24 06:14:07;;;;;;;;;9.00;9.00;;;;;22.21;47.03;100399.19;5100735;27;45296;-63
2021/07/24 06:16:35;;;;;;;;;12.75;10.50;;;;;22.18;46.94;100402.06;5101123;27;45306;-63
2021/07/24 06:19:01;;;;;;;;;8.25;7.25;;;;;22.10;47.28;100399.06;5100629;27;45459;-63
2021/07/24 06:21:26;;;;;;;;;6.25;6.25;;;;;22.10;47.37;100405.28;5100034;27;45324;-64
2021/07/24 06:23:51;;;;;;;;;9.50;9.25;;;;;22.03;47.38;100404.81;5100548;27;45277;-64
2021/07/24 06:26:17;;;;;;;;;4.50;4.50;;;;;22.00;47.18;100410.38;5101045;27;45244;-63
2021/07/24 06:28:42;;;;;;;;;7.25;5.50;;;;;21.96;47.40;100411.56;5078486;28;45454;-64
2021/07/24 06:31:08;;;;;;;;;7.25;6.00;;;;;21.92;47.54;100420.72;5069577;28;48288;-63
2021/07/24 06:33:33;;;;;;;;;9.00;8.00;;;;;21.90;47.32;100407.47;5098003;27;45488;-63
2021/07/24 06:36:02;;;;;;;;;6.75;6.75;;;;;21.91;47.81;100408.31;5101136;27;45329;-63
2021/07/24 06:38:27;;;;;;;;;9.50;7.50;;;;;21.89;47.71;100396.88;5104055;27;45697;-64
2021/07/24 06:40:53;;;;;;;;;7.75;7.00;;;;;21.88;47.04;100400.50;5104054;27;46173;-63
2021/07/24 06:43:18;;;;;;;;;8.50;5.50;;;;;21.89;47.76;100410.25;5104012;27;45618;-64
2021/07/24 06:45:44;;;;;;;;;7.25;6.50;;;;;21.90;47.29;100417.31;5104367;27;45229;-63
2021/07/24 06:48:09;;;;;;;;;5.50;5.50;;;;;21.86;47.83;100405.97;5103944;27;45203;-63
2021/07/24 06:50:34;;;;;;;;;5.00;5.00;;;;;21.87;47.10;100404.13;5103840;27;45345;-64
2021/07/24 06:53:00;;;;;;;;;7.75;6.50;;;;;21.89;46.99;100410.25;5082179;28;45312;-63
2021/07/24 06:55:28;;;;;;;;;8.25;6.25;;;;;21.89;47.15;100411.09;5094905;27;45370;-63
2021/07/24 06:57:54;;;;;;;;;8.50;4.75;;;;;21.89;47.07;100412.94;5103757;27;45276;-64
2021/07/24 07:00:19;;;;;;;;;9.25;5.50;;;;;21.87;47.14;100415.72;5081973;28;47952;-65
2021/07/24 07:02:45;;;;;;;;;5.25;5.25;;;;;21.87;47.41;100410.38;5101576;27;46749;-64
2021/07/24 07:05:10;;;;;;;;;7.75;7.25;;;;;21.84;46.74;100404.34;5104078;27;45422;-64
2021/07/24 07:07:37;;;;;;;;;5.00;4.00;;;;;21.87;46.79;100406.81;5103378;27;45382;-64
2021/07/24 07:10:04;;;;;;;;;5.50;5.50;;;;;21.87;47.01;100412.16;5103486;27;46318;-63
2021/07/24 07:12:29;;;;;;;;;6.00;6.00;;;;;21.89;47.42;100419.13;5103427;27;45731;-63
2021/07/24 07:14:55;;;;;;;;;6.00;6.00;;;;;21.87;47.22;100410.38;5103800;27;45335;-63
2021/07/24 07:17:21;;;;;;;;;6.00;5.00;;;;;21.79;46.82;100390.44;5103403;27;45509;-63
2021/07/24 07:19:47;;;;;;;;;9.75;7.75;;;;;21.91;47.76;100413.66;5103417;27;46102;-63
2021/07/24 07:22:12;;;;;;;;;6.50;5.75;;;;;21.92;47.63;100412.72;5103130;27;45308;-63
2021/07/24 07:24:37;;;;;;;;;6.50;5.00;;;;;21.92;47.07;100418.06;5103784;27;45288;-64
2021/07/24 07:27:03;;;;;;;;;6.75;5.75;;;;;21.95;47.54;100415.19;5103404;27;45737;-63
2021/07/24 07:29:28;;;;;;;;;5.50;5.50;;;;;22.00;47.25;100425.56;5103304;27;46308;-64
2021/07/24 07:31:54;;;;;;;;;7.25;7.25;;;;;22.02;47.39;100411.13;5084888;27;45330;-63
2021/07/24 07:34:19;;;;;;;;;6.25;5.50;;;;;22.03;46.98;100412.84;5103504;27;45294;-64
2021/07/24 07:36:44;;;;;;;;;7.25;7.25;;;;;22.08;46.97;100418.72;5103013;27;45264;-64
2021/07/24 07:39:09;;;;;;;;;3.50;2.50;;;;;22.08;47.25;100440.13;5102802;27;57171;-63
2021/07/24 07:41:35;;;;;;;;;7.00;4.75;;;;;22.10;47.07;100425.81;5103177;27;45351;-63
2021/07/24 07:44:00;;;;;;;;;6.00;4.75;;;;;22.15;47.08;100421.00;5103250;27;45438;-63
2021/07/24 07:46:26;;;;;;;;;6.50;5.00;;;;;22.17;47.31;100424.44;5103087;27;45387;-64
2021/07/24 07:48:51;;;;;;;;;5.00;5.00;;;;;22.23;46.71;100427.53;5101961;27;46889;-64
2021/07/24 07:51:16;;;;;;;;;6.50;5.00;;;;;22.28;47.02;100423.72;5081151;28;45395;-64
2021/07/24 07:53:42;;;;;;;;;4.25;4.00;;;;;22.26;47.26;100428.31;5092992;27;45307;-64
2021/07/24 07:56:09;;;;;;;;;7.25;7.00;;;;;22.33;47.30;100434.97;5102946;27;45293;-65
2021/07/24 07:58:36;;;;;;;;;5.00;3.75;;;;;22.35;46.79;100420.50;5102757;27;46151;-64
2021/07/24 08:01:07;;;;;;;;;6.25;4.00;;;;;22.37;46.74;100434.66;5102749;27;45194;-63
2021/07/24 08:03:33;;;;;;;;;5.00;5.00;;;;;22.42;46.86;100422.78;5084408;27;45387;-64
2021/07/24 08:05:58;;;;;;;;;5.25;4.50;;;;;22.47;46.65;100426.84;5102287;27;45339;-64
2021/07/24 08:08:23;;;;;;;;;4.50;4.50;;;;;22.48;46.44;100428.56;5102684;27;45273;-64
2021/07/24 08:10:49;;;;;;;;;6.00;5.00;;;;;22.52;46.72;100427.38;5102623;27;45261;-64
2021/07/24 08:13:19;;;;;;;;;5.50;4.00;;;;;22.52;46.99;100426.53;5102792;27;45298;-64
2021/07/24 08:15:46;;;;;;;;;8.00;5.50;;;;;22.56;47.06;100417.31;5080882;28;45480;-64
2021/07/24 08:18:11;;;;;;;;;4.50;3.50;;;;;22.61;46.45;100415.19;5088594;27;47252;-64
2021/07/24 08:20:41;;;;;;;;;5.00;5.00;;;;;22.65;46.78;100416.66;5099211;27;45511;-64
2021/07/24 08:23:12;;;;;;;;;4.00;4.00;;;;;22.68;46.39;100412.94;5102750;27;45212;-64
2021/07/24 08:25:37;;;;;;;;;4.00;4.00;;;;;22.72;46.57;100433.19;5080535;28;45244;-64
2021/07/24 08:28:04;;;;;;;;;4.25;4.25;;;;;22.74;46.47;100409.81;5093818;27;47074;-64
2021/07/24 08:30:29;;;;;;;;;5.00;4.00;;;;;22.81;46.51;100416.44;5102185;27;45394;-64
2021/07/24 08:32:55;;;;;;;;;5.00;5.00;;;;;22.83;46.68;100403.81;5101218;27;45423;-64
2021/07/24 08:35:21;;;;;;;;;6.25;6.00;;;;;22.90;46.57;100398.88;5102154;27;45255;-63
2021/07/24 08:37:46;;;;;;;;;7.00;5.00;;;;;22.93;46.71;100398.66;5104044;27;46449;-64
2021/07/24 08:40:13;;;;;;;;;6.50;5.00;;;;;23.00;46.20;100401.75;5097836;27;45411;-64
2021/07/24 08:42:41;;;;;;;;;4.50;3.25;;;;;23.04;46.53;100390.72;5081716;28;45481;-65
2021/07/24 08:45:13;;;;;;;;;5.75;5.75;;;;;23.10;45.96;100381.34;5081635;27;45315;-64
2021/07/24 08:47:39;;;;;;;;;4.50;3.25;;;;;23.14;46.04;100390.03;5081636;27;47073;-64
2021/07/24 08:50:07;;;;;;;;;5.75;5.50;;;;;23.17;46.12;100392.53;5081467;27;45324;-65
2021/07/24 08:52:34;;;;;;;;;8.00;5.75;;;;;23.22;45.81;100390.38;5081540;28;45411;-65
2021/07/24 08:55:01;;;;;;;;;4.50;4.00;;;;;23.24;45.82;100390.25;5081168;27;45578;-64
2021/07/24 08:57:34;;;;;;;;;4.00;4.00;;;;;23.30;45.86;100389.81;5080764;27;46271;-64
2021/07/24 09:00:08;;;;;;;;;4.25;4.25;;;;;23.33;45.32;100386.88;5088334;27;45182;-65
2021/07/24 09:02:37;;;;;;;;;4.75;4.75;;;;;23.35;45.58;100388.50;5101381;27;45476;-65
2021/07/24 09:05:05;;;;;;;;;5.00;5.00;;;;;23.42;45.72;100394.28;5082735;27;45438;-65
2021/07/24 09:07:33;;;;;;;;;5.50;4.50;;;;;23.45;45.84;100395.88;5100928;27;46302;-65
2021/07/24 09:10:00;;;;;;;;;6.50;6.25;;;;;23.50;45.53;100396.38;5101206;27;45280;-64
2021/07/24 09:12:29;;;;;;;;;3.75;3.75;;;;;23.49;45.75;100397.34;5101317;27;45273;-63
2021/07/24 09:14:57;;;;;;;;;5.50;3.25;;;;;23.56;45.29;100406.66;5101337;27;45323;-65
2021/07/24 09:17:23;;;;;;;;;4.25;4.25;;;;;23.64;45.45;100414.13;5101104;27;45441;-65
2021/07/24 09:19:50;;;;;;;;;2.50;2.00;;;;;23.69;45.05;100406.59;5100727;27;45200;-64
2021/07/24 09:22:25;;;;;;;;;4.50;3.75;;;;;23.72;44.73;100408.19;5100797;27;45238;-68
2021/07/24 09:25:09;;;;;;;;;4.25;3.00;;;;;23.76;45.06;100412.34;5082527;27;45572;-67
2021/07/24 09:27:36;;;;;;;;;5.00;4.00;;;;;23.82;44.84;100396.66;5082234;27;47463;-68
2021/07/24 09:30:03;;;;;;;;;3.25;3.25;;;;;23.86;44.85;100408.88;5080468;27;45445;-67
2021/07/24 09:32:29;;;;;;;;;5.50;4.00;;;;;23.94;44.88;100394.91;5101175;27;45507;-68
2021/07/24 09:34:54;;;;;;;;;3.00;3.00;;;;;24.02;44.94;100399.66;5100794;27;45280;-69
2021/07/24 09:37:29;;;;;;;;;5.00;4.50;;;;;24.08;45.04;100412.63;5082314;27;47073;-69
2021/07/24 09:39:57;;;;;;;;;2.75;2.75;;;;;24.17;44.63;100387.75;5100786;27;45251;-67
2021/07/24 09:42:30;;;;;;;;;4.00;2.25;;;;;24.20;44.54;100386.69;5082583;27;45346;-68
2021/07/24 09:45:07;;;;;;;;;2.00;2.00;;;;;24.29;44.11;100387.81;5100718;27;45394;-70
2021/07/24 09:47:32;;;;;;;;;3.00;2.25;;;;;24.41;44.14;100408.28;5100820;27;46491;-68
2021/07/24 09:50:15;;;;;;;;;4.25;3.25;;;;;24.45;44.25;100409.78;5100849;27;45350;-69
2021/07/24 09:52:53;;;;;;;;;6.00;4.00;;;;;24.52;43.67;100403.94;5082859;27;45331;-71
2021/07/24 09:55:21;;;;;;;;;5.00;3.00;;;;;24.59;44.01;100394.41;5101027;27;45540;-69
2021/07/24 09:57:47;;;;;;;;;6.25;4.50;;;;;24.66;44.04;100396.50;5100347;27;46282;-68
2021/07/24 10:00:19;;;;;;;;;5.75;5.00;;;;;24.77;44.39;100406.41;5100217;27;45251;-69
2021/07/24 10:02:46;;;;;;;;;5.50;4.50;;;;;24.80;44.34;100411.56;5081969;27;45416;-69
2021/07/24 10:05:11;;;;;;;;;5.25;3.75;;;;;24.90;44.05;100410.81;5099976;27;45577;-71
2021/07/24 10:07:37;;;;;;;;;4.25;3.25;;;;;25.02;43.82;100411.66;5099874;27;45235;-70
2021/07/24 10:10:03;;;;;;;;;3.25;3.25;;;;;25.08;43.91;100416.53;5064871;27;45344;-70
2021/07/24 10:12:28;;;;;;;;;5.25;4.00;;;;;25.18;43.75;100412.13;5099793;27;45215;-69
2021/07/24 10:14:54;;;;;;;;;4.25;4.00;;;;;25.31;43.67;100417.38;5078812;28;45457;-70
2021/07/24 10:17:20;;;;;;;;;4.00;2.00;;;;;25.37;43.51;100411.53;5096968;27;46011;-70
2021/07/24 10:19:46;;;;;;;;;3.75;3.75;;;;;25.44;43.74;100409.19;5100297;27;45369;-68
2021/07/24 10:22:11;;;;;;;;;4.75;3.25;;;;;25.53;43.16;100405.72;5082075;27;45416;-72
2021/07/24 10:24:36;;;;;;;;;5.25;4.25;;;;;25.61;43.18;100414.03;5085493;27;45342;-70
2021/07/24 10:27:17;;;;;;;;;4.00;4.00;;;;;25.69;43.67;100415.22;5083602;27;45378;-70
2021/07/24 10:29:50;;;;;;;;;7.25;5.00;;;;;25.75;43.18;100409.34;5079991;28;45240;-70
2021/07/24 10:32:23;;;;;;;;;4.00;3.00;;;;;25.83;43.07;100406.84;5080026;27;45306;-71
2021/07/24 10:34:51;;;;;;;;;4.00;4.00;;;;;25.86;42.93;100403.91;5061388;28;45758;-69
2021/07/24 10:37:38;;;;;;;;;5.25;2.75;;;;;25.99;42.68;100403.72;5079881;27;46382;-72
2021/07/24 10:40:16;;;;;;;;;2.75;2.75;;;;;26.07;42.89;100403.09;5079769;28;45393;-71
2021/07/24 10:42:44;;;;;;;;;5.25;4.00;;;;;26.18;42.34;100405.72;5080000;28;45300;-71
2021/07/24 10:45:36;;;;;;;;;4.75;4.00;;;;;26.28;42.33;100414.72;5079993;27;45248;-75
2021/07/24 10:48:14;;;;;;;;;3.50;2.50;;;;;26.39;42.83;100396.78;5079933;27;45357;-71
2021/07/24 10:50:58;;;;;;;;;6.00;6.00;;;;;26.57;42.88;100388.94;5079616;28;45327;-71
2021/07/24 10:53:28;;;;;;;;;4.25;4.25;;;;;26.75;42.97;100387.38;5061769;28;45249;-71
2021/07/24 10:55:55;;;;;;;;;3.25;3.25;;;;;26.95;42.14;100375.78;5061820;28;45569;-70
2021/07/24 10:58:25;;;;;;;;;3.50;3.50;;;;;27.13;42.72;100375.97;5079600;28;45668;-71
2021/07/24 11:00:55;;;;;;;;;4.25;3.50;;;;;27.35;42.59;100380.28;5079601;27;45186;-71
2021/07/24 11:03:37;;;;;;;;;3.25;3.25;;;;;27.62;42.64;100371.50;5079910;28;45338;-71
2021/07/24 11:06:24;;;;;;;;;3.00;3.00;;;;;27.97;42.05;100382.75;5065321;27;45538;-74
2021/07/24 11:09:09;;;;;;;;;3.00;3.00;;;;;28.20;42.29;100386.88;5099722;27;46153;-72
2021/07/24 11:12:05;;;;;;;;;4.25;4.25;;;;;28.42;41.55;100389.38;5100223;27;45415;-72
2021/07/24 11:14:30;;;;;;;;;5.25;3.50;;;;;28.53;41.04;100386.50;5100117;27;45392;-72
2021/07/24 11:17:08;;;;;;;;;4.00;4.00;;;;;28.58;41.32;100388.72;5099801;27;45564;-71
2021/07/24 11:19:49;;;;;;;;;6.75;3.50;;;;;28.61;41.05;100392.00;5099974;27;45432;-70
2021/07/24 11:22:28;;;;;;;;;4.50;2.00;;;;;28.61;40.97;100396.56;5082276;27;46121;-69
2021/07/24 11:24:53;;;;;;;;;3.00;2.75;;;;;28.59;40.51;100402.13;5085152;27;45375;-72